sensor_id;sensor_type;location;lat;lon;timestamp;temperature;humidity
61392;DHT22;47261;52.892;5.738;2023-03-14T00:00:45;11.60;94.80
61392;DHT22;47261;52.892;5.738;2023-03-14T00:03:11;11.50;94.90
61392;DHT22;47261;52.892;5.738;2023-03-14T00:05:36;11.50;95.00
61392;DHT22;47261;52.892;5.738;2023-03-14T00:08:02;11.50;95.10
61392;DHT22;47261;52.892;5.738;2023-03-14T00:10:28;11.50;95.20
61392;DHT22;47261;52.892;5.738;2023-03-14T00:12:54;11.50;95.30
61392;DHT22;47261;52.892;5.738;2023-03-14T00:15:19;11.50;95.40
61392;DHT22;47261;52.892;5.738;2023-03-14T00:17:45;11.50;95.40
61392;DHT22;47261;52.892;5.738;2023-03-14T00:20:11;11.50;95.40
61392;DHT22;47261;52.892;5.738;2023-03-14T00:22:41;11.50;95.50
61392;DHT22;47261;52.892;5.738;2023-03-14T00:25:08;11.50;95.50
61392;DHT22;47261;52.892;5.738;2023-03-14T00:27:34;11.40;95.70
61392;DHT22;47261;52.892;5.738;2023-03-14T00:30:00;11.40;95.80
61392;DHT22;47261;52.892;5.738;2023-03-14T00:32:25;11.30;96.00
61392;DHT22;47261;52.892;5.738;2023-03-14T00:34:51;11.20;96.20
61392;DHT22;47261;52.892;5.738;2023-03-14T00:37:17;11.10;96.30
61392;DHT22;47261;52.892;5.738;2023-03-14T00:39:42;11.00;96.50
61392;DHT22;47261;52.892;5.738;2023-03-14T00:42:08;11.00;96.80
61392;DHT22;47261;52.892;5.738;2023-03-14T00:44:34;10.90;97.00
61392;DHT22;47261;52.892;5.738;2023-03-14T00:47:00;10.80;97.40
61392;DHT22;47261;52.892;5.738;2023-03-14T00:49:25;10.80;97.50
61392;DHT22;47261;52.892;5.738;2023-03-14T00:51:51;10.80;97.60
61392;DHT22;47261;52.892;5.738;2023-03-14T00:54:18;10.80;97.70
61392;DHT22;47261;52.892;5.738;2023-03-14T00:56:44;10.80;97.80
61392;DHT22;47261;52.892;5.738;2023-03-14T00:59:10;10.70;97.90
61392;DHT22;47261;52.892;5.738;2023-03-14T01:01:35;10.70;98.00
61392;DHT22;47261;52.892;5.738;2023-03-14T01:04:01;10.60;98.10
61392;DHT22;47261;52.892;5.738;2023-03-14T01:06:29;10.50;98.40
61392;DHT22;47261;52.892;5.738;2023-03-14T01:08:56;10.50;98.60
61392;DHT22;47261;52.892;5.738;2023-03-14T01:11:27;10.40;98.70
61392;DHT22;47261;52.892;5.738;2023-03-14T01:13:54;10.40;98.90
61392;DHT22;47261;52.892;5.738;2023-03-14T01:16:21;10.30;99.10
61392;DHT22;47261;52.892;5.738;2023-03-14T01:18:48;10.30;99.30
61392;DHT22;47261;52.892;5.738;2023-03-14T01:23:41;10.20;99.50
61392;DHT22;47261;52.892;5.738;2023-03-14T01:26:16;10.20;99.60
61392;DHT22;47261;52.892;5.738;2023-03-14T01:28:42;10.20;99.70
61392;DHT22;47261;52.892;5.738;2023-03-14T01:31:09;10.20;99.80
61392;DHT22;47261;52.892;5.738;2023-03-14T01:33:36;10.20;99.90
61392;DHT22;47261;52.892;5.738;2023-03-14T01:36:02;10.10;99.90
61392;DHT22;47261;52.892;5.738;2023-03-14T01:38:32;10.10;99.90
61392;DHT22;47261;52.892;5.738;2023-03-14T01:40:58;10.10;99.90
61392;DHT22;47261;52.892;5.738;2023-03-14T01:43:24;10.10;99.90
61392;DHT22;47261;52.892;5.738;2023-03-14T01:51:32;10.10;99.90
61392;DHT22;47261;52.892;5.738;2023-03-14T01:54:04;10.00;99.90
61392;DHT22;47261;52.892;5.738;2023-03-14T01:56:31;10.00;99.90
61392;DHT22;47261;52.892;5.738;2023-03-14T01:58:58;10.00;99.90
61392;DHT22;47261;52.892;5.738;2023-03-14T02:01:25;10.00;99.90
61392;DHT22;47261;52.892;5.738;2023-03-14T02:03:54;10.00;99.90
61392;DHT22;47261;52.892;5.738;2023-03-14T02:06:24;10.00;99.90
61392;DHT22;47261;52.892;5.738;2023-03-14T02:08:50;10.00;99.90
61392;DHT22;47261;52.892;5.738;2023-03-14T02:11:17;10.00;99.90
61392;DHT22;47261;52.892;5.738;2023-03-14T02:13:44;10.00;99.90
61392;DHT22;47261;52.892;5.738;2023-03-14T02:16:10;10.00;99.90
61392;DHT22;47261;52.892;5.738;2023-03-14T02:18:36;10.00;99.90
61392;DHT22;47261;52.892;5.738;2023-03-14T02:21:23;10.00;99.90
61392;DHT22;47261;52.892;5.738;2023-03-14T02:24:04;10.00;99.90
61392;DHT22;47261;52.892;5.738;2023-03-14T02:29:33;10.00;99.90
61392;DHT22;47261;52.892;5.738;2023-03-14T02:32:01;10.00;99.90
61392;DHT22;47261;52.892;5.738;2023-03-14T02:34:27;10.00;99.90
61392;DHT22;47261;52.892;5.738;2023-03-14T02:36:53;9.90;99.90
61392;DHT22;47261;52.892;5.738;2023-03-14T02:39:29;9.90;99.90
61392;DHT22;47261;52.892;5.738;2023-03-14T02:41:57;9.90;99.90
61392;DHT22;47261;52.892;5.738;2023-03-14T02:44:23;9.80;99.90
61392;DHT22;47261;52.892;5.738;2023-03-14T02:46:49;9.70;99.90
61392;DHT22;47261;52.892;5.738;2023-03-14T02:49:15;9.70;99.90
61392;DHT22;47261;52.892;5.738;2023-03-14T02:51:43;9.70;99.90
61392;DHT22;47261;52.892;5.738;2023-03-14T02:54:10;9.60;99.90
61392;DHT22;47261;52.892;5.738;2023-03-14T02:56:36;9.60;99.90
61392;DHT22;47261;52.892;5.738;2023-03-14T02:59:05;9.60;99.90
61392;DHT22;47261;52.892;5.738;2023-03-14T03:01:31;9.50;99.90
61392;DHT22;47261;52.892;5.738;2023-03-14T03:03:57;9.50;99.90
61392;DHT22;47261;52.892;5.738;2023-03-14T03:06:22;9.40;99.90
61392;DHT22;47261;52.892;5.738;2023-03-14T03:08:48;9.40;99.90
61392;DHT22;47261;52.892;5.738;2023-03-14T03:11:14;9.40;99.90
61392;DHT22;47261;52.892;5.738;2023-03-14T03:13:39;9.40;99.90
61392;DHT22;47261;52.892;5.738;2023-03-14T03:16:05;9.40;99.90
61392;DHT22;47261;52.892;5.738;2023-03-14T03:18:31;9.40;99.90
61392;DHT22;47261;52.892;5.738;2023-03-14T03:21:00;9.40;99.90
61392;DHT22;47261;52.892;5.738;2023-03-14T03:23:26;9.40;99.90
61392;DHT22;47261;52.892;5.738;2023-03-14T03:25:52;9.40;99.90
61392;DHT22;47261;52.892;5.738;2023-03-14T03:28:18;9.40;99.90
61392;DHT22;47261;52.892;5.738;2023-03-14T03:30:44;9.40;99.90
61392;DHT22;47261;52.892;5.738;2023-03-14T03:33:10;9.40;99.90
61392;DHT22;47261;52.892;5.738;2023-03-14T03:35:47;9.40;99.90
61392;DHT22;47261;52.892;5.738;2023-03-14T03:38:13;9.40;99.90
61392;DHT22;47261;52.892;5.738;2023-03-14T03:40:40;9.50;99.90
61392;DHT22;47261;52.892;5.738;2023-03-14T03:43:05;9.50;99.90
61392;DHT22;47261;52.892;5.738;2023-03-14T03:45:31;9.50;99.90
61392;DHT22;47261;52.892;5.738;2023-03-14T03:47:57;9.50;99.90
61392;DHT22;47261;52.892;5.738;2023-03-14T03:50:22;9.60;99.90
61392;DHT22;47261;52.892;5.738;2023-03-14T03:52:48;9.60;99.90
61392;DHT22;47261;52.892;5.738;2023-03-14T03:55:13;9.60;99.90
61392;DHT22;47261;52.892;5.738;2023-03-14T03:57:39;9.70;99.90
61392;DHT22;47261;52.892;5.738;2023-03-14T04:00:06;9.70;99.90
61392;DHT22;47261;52.892;5.738;2023-03-14T04:02:32;9.70;99.90
61392;DHT22;47261;52.892;5.738;2023-03-14T04:04:58;9.70;99.90
61392;DHT22;47261;52.892;5.738;2023-03-14T04:07:24;9.70;99.90
61392;DHT22;47261;52.892;5.738;2023-03-14T04:09:49;9.70;99.90
61392;DHT22;47261;52.892;5.738;2023-03-14T04:12:15;9.70;99.90
61392;DHT22;47261;52.892;5.738;2023-03-14T04:14:40;9.70;99.90
61392;DHT22;47261;52.892;5.738;2023-03-14T04:17:06;9.70;99.90
61392;DHT22;47261;52.892;5.738;2023-03-14T04:19:32;9.70;99.90
61392;DHT22;47261;52.892;5.738;2023-03-14T04:21:58;9.70;99.90
61392;DHT22;47261;52.892;5.738;2023-03-14T04:24:24;9.60;99.90
61392;DHT22;47261;52.892;5.738;2023-03-14T04:26:50;9.60;99.90
61392;DHT22;47261;52.892;5.738;2023-03-14T04:29:15;9.50;99.90
61392;DHT22;47261;52.892;5.738;2023-03-14T04:31:41;9.50;99.90
61392;DHT22;47261;52.892;5.738;2023-03-14T04:34:07;9.40;99.90
61392;DHT22;47261;52.892;5.738;2023-03-14T04:36:32;9.40;99.90
61392;DHT22;47261;52.892;5.738;2023-03-14T04:38:58;9.40;99.90
61392;DHT22;47261;52.892;5.738;2023-03-14T04:41:24;9.30;99.90
61392;DHT22;47261;52.892;5.738;2023-03-14T04:43:49;9.30;99.90
61392;DHT22;47261;52.892;5.738;2023-03-14T04:46:15;9.30;99.90
61392;DHT22;47261;52.892;5.738;2023-03-14T04:48:41;9.30;99.90
61392;DHT22;47261;52.892;5.738;2023-03-14T04:51:07;9.30;99.90
61392;DHT22;47261;52.892;5.738;2023-03-14T04:53:32;9.30;99.90
61392;DHT22;47261;52.892;5.738;2023-03-14T04:55:59;9.30;99.90
61392;DHT22;47261;52.892;5.738;2023-03-14T04:58:25;9.30;99.90
61392;DHT22;47261;52.892;5.738;2023-03-14T05:00:51;9.30;99.90
61392;DHT22;47261;52.892;5.738;2023-03-14T05:03:17;9.30;99.90
61392;DHT22;47261;52.892;5.738;2023-03-14T05:05:44;9.30;99.90
61392;DHT22;47261;52.892;5.738;2023-03-14T05:08:10;9.30;99.90
61392;DHT22;47261;52.892;5.738;2023-03-14T05:10:36;9.20;99.90
61392;DHT22;47261;52.892;5.738;2023-03-14T05:13:02;9.20;99.90
61392;DHT22;47261;52.892;5.738;2023-03-14T05:15:28;9.20;99.90
61392;DHT22;47261;52.892;5.738;2023-03-14T05:17:53;9.10;99.90
61392;DHT22;47261;52.892;5.738;2023-03-14T05:20:20;9.10;99.90
61392;DHT22;47261;52.892;5.738;2023-03-14T05:22:46;9.10;99.90
61392;DHT22;47261;52.892;5.738;2023-03-14T05:25:12;9.10;99.90
61392;DHT22;47261;52.892;5.738;2023-03-14T05:27:37;9.10;99.90
61392;DHT22;47261;52.892;5.738;2023-03-14T05:30:04;9.10;99.90
61392;DHT22;47261;52.892;5.738;2023-03-14T05:32:30;9.10;99.90
61392;DHT22;47261;52.892;5.738;2023-03-14T05:34:56;9.10;99.90
61392;DHT22;47261;52.892;5.738;2023-03-14T05:37:25;9.00;99.90
61392;DHT22;47261;52.892;5.738;2023-03-14T05:39:51;9.00;99.90
61392;DHT22;47261;52.892;5.738;2023-03-14T05:42:17;9.00;99.90
61392;DHT22;47261;52.892;5.738;2023-03-14T05:44:42;9.00;99.90
61392;DHT22;47261;52.892;5.738;2023-03-14T05:47:08;9.10;99.90
61392;DHT22;47261;52.892;5.738;2023-03-14T05:49:33;9.10;99.90
61392;DHT22;47261;52.892;5.738;2023-03-14T05:51:59;9.10;99.90
61392;DHT22;47261;52.892;5.738;2023-03-14T05:54:25;9.10;99.90
61392;DHT22;47261;52.892;5.738;2023-03-14T05:56:50;9.10;99.90
61392;DHT22;47261;52.892;5.738;2023-03-14T05:59:16;9.10;99.90
61392;DHT22;47261;52.892;5.738;2023-03-14T06:01:42;9.10;99.90
61392;DHT22;47261;52.892;5.738;2023-03-14T06:04:07;9.10;99.90
61392;DHT22;47261;52.892;5.738;2023-03-14T06:06:33;9.00;99.90
61392;DHT22;47261;52.892;5.738;2023-03-14T06:08:59;9.00;99.90
61392;DHT22;47261;52.892;5.738;2023-03-14T06:11:24;8.80;99.90
61392;DHT22;47261;52.892;5.738;2023-03-14T06:13:50;8.80;99.90
61392;DHT22;47261;52.892;5.738;2023-03-14T06:16:16;8.70;99.90
61392;DHT22;47261;52.892;5.738;2023-03-14T06:18:42;8.60;99.90
61392;DHT22;47261;52.892;5.738;2023-03-14T06:21:07;8.50;99.90
61392;DHT22;47261;52.892;5.738;2023-03-14T06:23:33;8.50;99.90
61392;DHT22;47261;52.892;5.738;2023-03-14T06:25:59;8.40;99.90
61392;DHT22;47261;52.892;5.738;2023-03-14T06:28:25;8.30;99.90
61392;DHT22;47261;52.892;5.738;2023-03-14T06:30:50;8.30;99.90
61392;DHT22;47261;52.892;5.738;2023-03-14T06:33:16;8.20;99.90
61392;DHT22;47261;52.892;5.738;2023-03-14T06:35:41;8.20;99.90
61392;DHT22;47261;52.892;5.738;2023-03-14T06:38:07;8.20;99.90
61392;DHT22;47261;52.892;5.738;2023-03-14T06:40:33;8.10;99.90
61392;DHT22;47261;52.892;5.738;2023-03-14T06:42:58;8.00;99.90
61392;DHT22;47261;52.892;5.738;2023-03-14T06:45:24;7.90;99.90
61392;DHT22;47261;52.892;5.738;2023-03-14T06:47:50;7.70;99.90
61392;DHT22;47261;52.892;5.738;2023-03-14T06:50:15;7.50;99.90
61392;DHT22;47261;52.892;5.738;2023-03-14T06:52:41;7.30;99.90
61392;DHT22;47261;52.892;5.738;2023-03-14T06:55:11;7.20;99.90
61392;DHT22;47261;52.892;5.738;2023-03-14T06:57:37;7.10;99.90
61392;DHT22;47261;52.892;5.738;2023-03-14T07:00:04;6.90;99.90
61392;DHT22;47261;52.892;5.738;2023-03-14T07:02:30;6.90;99.90
61392;DHT22;47261;52.892;5.738;2023-03-14T07:04:55;6.80;99.90
61392;DHT22;47261;52.892;5.738;2023-03-14T07:07:21;6.70;99.90
61392;DHT22;47261;52.892;5.738;2023-03-14T07:09:47;6.60;99.90
61392;DHT22;47261;52.892;5.738;2023-03-14T07:12:12;6.50;99.90
61392;DHT22;47261;52.892;5.738;2023-03-14T07:14:38;6.50;99.90
61392;DHT22;47261;52.892;5.738;2023-03-14T07:17:03;6.40;99.90
61392;DHT22;47261;52.892;5.738;2023-03-14T07:19:29;6.40;99.90
61392;DHT22;47261;52.892;5.738;2023-03-14T07:21:55;6.40;99.90
61392;DHT22;47261;52.892;5.738;2023-03-14T07:24:20;6.30;99.90
61392;DHT22;47261;52.892;5.738;2023-03-14T07:26:46;6.30;99.90
61392;DHT22;47261;52.892;5.738;2023-03-14T07:29:12;6.30;99.90
61392;DHT22;47261;52.892;5.738;2023-03-14T07:31:37;6.30;99.90
61392;DHT22;47261;52.892;5.738;2023-03-14T07:34:03;6.30;99.90
61392;DHT22;47261;52.892;5.738;2023-03-14T07:36:29;6.30;99.90
61392;DHT22;47261;52.892;5.738;2023-03-14T07:38:54;6.30;99.90
61392;DHT22;47261;52.892;5.738;2023-03-14T07:41:20;6.30;99.90
61392;DHT22;47261;52.892;5.738;2023-03-14T07:43:46;6.20;99.90
61392;DHT22;47261;52.892;5.738;2023-03-14T07:46:12;6.20;99.90
61392;DHT22;47261;52.892;5.738;2023-03-14T07:48:37;6.20;99.90
61392;DHT22;47261;52.892;5.738;2023-03-14T07:51:03;6.20;99.90
61392;DHT22;47261;52.892;5.738;2023-03-14T07:53:29;6.30;99.90
61392;DHT22;47261;52.892;5.738;2023-03-14T07:55:54;6.30;99.90
61392;DHT22;47261;52.892;5.738;2023-03-14T07:58:20;6.40;99.90
61392;DHT22;47261;52.892;5.738;2023-03-14T08:00:50;6.40;99.90
61392;DHT22;47261;52.892;5.738;2023-03-14T08:03:16;6.50;99.90
61392;DHT22;47261;52.892;5.738;2023-03-14T08:05:42;6.60;99.90
61392;DHT22;47261;52.892;5.738;2023-03-14T08:08:08;6.60;99.90
61392;DHT22;47261;52.892;5.738;2023-03-14T08:10:34;6.60;99.90
61392;DHT22;47261;52.892;5.738;2023-03-14T08:13:00;6.70;99.90
61392;DHT22;47261;52.892;5.738;2023-03-14T08:15:28;6.70;99.90
61392;DHT22;47261;52.892;5.738;2023-03-14T08:17:54;6.80;99.90
61392;DHT22;47261;52.892;5.738;2023-03-14T08:20:22;6.80;99.90
61392;DHT22;47261;52.892;5.738;2023-03-14T08:22:48;6.90;99.90
61392;DHT22;47261;52.892;5.738;2023-03-14T08:25:15;7.00;99.90
61392;DHT22;47261;52.892;5.738;2023-03-14T08:27:41;7.10;99.90
61392;DHT22;47261;52.892;5.738;2023-03-14T08:30:11;7.20;99.90
61392;DHT22;47261;52.892;5.738;2023-03-14T08:32:37;7.20;99.90
61392;DHT22;47261;52.892;5.738;2023-03-14T08:35:04;7.30;99.90
61392;DHT22;47261;52.892;5.738;2023-03-14T08:37:34;7.30;99.90
61392;DHT22;47261;52.892;5.738;2023-03-14T08:40:00;7.40;99.90
61392;DHT22;47261;52.892;5.738;2023-03-14T08:42:26;7.40;99.90
61392;DHT22;47261;52.892;5.738;2023-03-14T08:44:52;7.50;99.90
61392;DHT22;47261;52.892;5.738;2023-03-14T08:47:18;7.50;99.90
61392;DHT22;47261;52.892;5.738;2023-03-14T08:49:44;7.60;99.90
61392;DHT22;47261;52.892;5.738;2023-03-14T08:52:10;7.70;99.90
61392;DHT22;47261;52.892;5.738;2023-03-14T08:54:35;7.70;99.90
61392;DHT22;47261;52.892;5.738;2023-03-14T08:57:01;7.80;99.90
61392;DHT22;47261;52.892;5.738;2023-03-14T08:59:27;7.90;99.90
61392;DHT22;47261;52.892;5.738;2023-03-14T09:01:53;8.00;99.90
61392;DHT22;47261;52.892;5.738;2023-03-14T09:04:20;8.00;99.90
61392;DHT22;47261;52.892;5.738;2023-03-14T09:06:45;8.00;99.90
61392;DHT22;47261;52.892;5.738;2023-03-14T09:09:11;7.80;99.90
61392;DHT22;47261;52.892;5.738;2023-03-14T09:11:39;7.60;99.90
61392;DHT22;47261;52.892;5.738;2023-03-14T09:14:04;7.30;99.80
61392;DHT22;47261;52.892;5.738;2023-03-14T09:16:30;7.20;99.90
61392;DHT22;47261;52.892;5.738;2023-03-14T09:18:55;7.00;99.90
61392;DHT22;47261;52.892;5.738;2023-03-14T09:21:25;7.00;99.90
61392;DHT22;47261;52.892;5.738;2023-03-14T09:23:51;7.00;99.90
61392;DHT22;47261;52.892;5.738;2023-03-14T09:26:16;7.00;99.90
61392;DHT22;47261;52.892;5.738;2023-03-14T09:28:42;7.00;99.90
61392;DHT22;47261;52.892;5.738;2023-03-14T09:31:09;7.10;99.90
61392;DHT22;47261;52.892;5.738;2023-03-14T09:33:35;7.10;99.90
61392;DHT22;47261;52.892;5.738;2023-03-14T09:36:02;7.20;99.90
61392;DHT22;47261;52.892;5.738;2023-03-14T09:38:28;7.30;99.90
61392;DHT22;47261;52.892;5.738;2023-03-14T09:40:54;7.40;99.90
61392;DHT22;47261;52.892;5.738;2023-03-14T09:43:21;7.50;99.90
61392;DHT22;47261;52.892;5.738;2023-03-14T09:45:48;7.60;99.90
61392;DHT22;47261;52.892;5.738;2023-03-14T09:48:19;7.60;99.90
61392;DHT22;47261;52.892;5.738;2023-03-14T09:50:49;7.60;99.70
61392;DHT22;47261;52.892;5.738;2023-03-14T09:53:22;7.50;98.80
61392;DHT22;47261;52.892;5.738;2023-03-14T09:55:50;7.50;98.10
61392;DHT22;47261;52.892;5.738;2023-03-14T09:58:21;7.50;98.00
61392;DHT22;47261;52.892;5.738;2023-03-14T10:00:49;7.60;97.20
61392;DHT22;47261;52.892;5.738;2023-03-14T10:03:25;7.60;97.80
61392;DHT22;47261;52.892;5.738;2023-03-14T10:05:51;7.70;97.40
61392;DHT22;47261;52.892;5.738;2023-03-14T10:08:17;7.80;96.80
61392;DHT22;47261;52.892;5.738;2023-03-14T10:10:43;7.80;96.00
61392;DHT22;47261;52.892;5.738;2023-03-14T10:13:23;7.90;95.40
61392;DHT22;47261;52.892;5.738;2023-03-14T10:16:03;7.90;94.90
61392;DHT22;47261;52.892;5.738;2023-03-14T10:18:32;8.00;95.50
61392;DHT22;47261;52.892;5.738;2023-03-14T10:21:20;8.10;95.90
61392;DHT22;47261;52.892;5.738;2023-03-14T10:23:46;8.10;94.10
61392;DHT22;47261;52.892;5.738;2023-03-14T10:26:14;8.20;93.60
61392;DHT22;47261;52.892;5.738;2023-03-14T10:28:47;8.20;92.60
61392;DHT22;47261;52.892;5.738;2023-03-14T10:31:14;8.20;93.00
61392;DHT22;47261;52.892;5.738;2023-03-14T10:33:40;8.40;94.00
61392;DHT22;47261;52.892;5.738;2023-03-14T10:36:22;8.60;92.60
61392;DHT22;47261;52.892;5.738;2023-03-14T10:38:49;8.70;91.50
61392;DHT22;47261;52.892;5.738;2023-03-14T10:41:25;8.90;90.30
61392;DHT22;47261;52.892;5.738;2023-03-14T10:43:57;9.10;90.30
61392;DHT22;47261;52.892;5.738;2023-03-14T10:46:25;9.10;86.40
61392;DHT22;47261;52.892;5.738;2023-03-14T10:48:53;9.00;85.30
61392;DHT22;47261;52.892;5.738;2023-03-14T10:51:28;8.90;87.70
61392;DHT22;47261;52.892;5.738;2023-03-14T10:54:04;9.00;88.80
61392;DHT22;47261;52.892;5.738;2023-03-14T10:56:37;9.10;87.80
61392;DHT22;47261;52.892;5.738;2023-03-14T10:59:07;9.10;85.80
61392;DHT22;47261;52.892;5.738;2023-03-14T11:02:20;9.10;83.80
61392;DHT22;47261;52.892;5.738;2023-03-14T11:07:40;9.20;83.30
61392;DHT22;47261;52.892;5.738;2023-03-14T11:10:18;9.30;84.30
61392;DHT22;47261;52.892;5.738;2023-03-14T11:13:21;9.30;84.50
61392;DHT22;47261;52.892;5.738;2023-03-14T11:18:51;9.00;81.70
61392;DHT22;47261;52.892;5.738;2023-03-14T11:21:27;9.00;82.60
61392;DHT22;47261;52.892;5.738;2023-03-14T11:29:41;9.00;81.60
61392;DHT22;47261;52.892;5.738;2023-03-14T11:34:56;9.10;75.90
61392;DHT22;47261;52.892;5.738;2023-03-14T11:37:34;9.10;76.00
61392;DHT22;47261;52.892;5.738;2023-03-14T11:40:14;9.10;75.60
61392;DHT22;47261;52.892;5.738;2023-03-14T11:42:43;9.10;77.80
61392;DHT22;47261;52.892;5.738;2023-03-14T11:45:26;9.10;76.50
61392;DHT22;47261;52.892;5.738;2023-03-14T11:50:54;8.80;74.30
61392;DHT22;47261;52.892;5.738;2023-03-14T11:53:57;8.80;77.30
61392;DHT22;47261;52.892;5.738;2023-03-14T11:59:38;9.20;78.40
61392;DHT22;47261;52.892;5.738;2023-03-14T12:02:38;9.40;75.20
61392;DHT22;47261;52.892;5.738;2023-03-14T12:10:49;9.50;74.00
61392;DHT22;47261;52.892;5.738;2023-03-14T12:13:17;9.60;75.40
61392;DHT22;47261;52.892;5.738;2023-03-14T12:15:50;9.50;72.30
61392;DHT22;47261;52.892;5.738;2023-03-14T12:18:26;9.40;73.40
61392;DHT22;47261;52.892;5.738;2023-03-14T12:20:55;9.30;73.00
61392;DHT22;47261;52.892;5.738;2023-03-14T12:23:23;9.10;74.20
61392;DHT22;47261;52.892;5.738;2023-03-14T12:28:39;8.80;74.30
61392;DHT22;47261;52.892;5.738;2023-03-14T12:34:30;8.80;75.20
61392;DHT22;47261;52.892;5.738;2023-03-14T12:37:44;9.00;74.40
61392;DHT22;47261;52.892;5.738;2023-03-14T12:45:32;8.90;70.30
61392;DHT22;47261;52.892;5.738;2023-03-14T12:48:21;8.70;71.80
61392;DHT22;47261;52.892;5.738;2023-03-14T12:50:55;8.90;73.80
61392;DHT22;47261;52.892;5.738;2023-03-14T12:56:26;9.50;71.40
61392;DHT22;47261;52.892;5.738;2023-03-14T12:59:44;9.80;71.30
61392;DHT22;47261;52.892;5.738;2023-03-14T13:02:02;10.00;69.30
61392;DHT22;47261;52.892;5.738;2023-03-14T13:07:13;10.20;71.70
61392;DHT22;47261;52.892;5.738;2023-03-14T13:13:03;10.20;71.90
61392;DHT22;47261;52.892;5.738;2023-03-14T13:15:48;10.00;70.20
61392;DHT22;47261;52.892;5.738;2023-03-14T13:20:59;9.30;73.00
61392;DHT22;47261;52.892;5.738;2023-03-14T13:23:29;9.10;74.40
61392;DHT22;47261;52.892;5.738;2023-03-14T13:25:55;8.90;75.70
61392;DHT22;47261;52.892;5.738;2023-03-14T13:28:22;8.80;74.80
61392;DHT22;47261;52.892;5.738;2023-03-14T13:30:49;8.70;72.70
61392;DHT22;47261;52.892;5.738;2023-03-14T13:33:19;8.70;74.30
61392;DHT22;47261;52.892;5.738;2023-03-14T13:35:57;8.80;75.70
61392;DHT22;47261;52.892;5.738;2023-03-14T13:38:25;9.00;73.20
61392;DHT22;47261;52.892;5.738;2023-03-14T13:40:54;9.30;71.90
61392;DHT22;47261;52.892;5.738;2023-03-14T13:45:56;9.50;67.00
61392;DHT22;47261;52.892;5.738;2023-03-14T13:48:28;9.30;68.00
61392;DHT22;47261;52.892;5.738;2023-03-14T13:51:05;9.10;68.10
61392;DHT22;47261;52.892;5.738;2023-03-14T13:53:33;8.90;67.90
61392;DHT22;47261;52.892;5.738;2023-03-14T13:56:09;8.80;69.10
61392;DHT22;47261;52.892;5.738;2023-03-14T13:58:37;8.80;70.40
61392;DHT22;47261;52.892;5.738;2023-03-14T14:01:16;8.90;71.00
61392;DHT22;47261;52.892;5.738;2023-03-14T14:03:45;9.10;71.80
61392;DHT22;47261;52.892;5.738;2023-03-14T14:08:55;9.00;71.90
61392;DHT22;47261;52.892;5.738;2023-03-14T14:14:07;8.70;70.10
61392;DHT22;47261;52.892;5.738;2023-03-14T14:16:35;8.40;68.70
61392;DHT22;47261;52.892;5.738;2023-03-14T14:19:01;8.10;69.10
61392;DHT22;47261;52.892;5.738;2023-03-14T14:21:28;8.10;71.40
61392;DHT22;47261;52.892;5.738;2023-03-14T14:23:53;8.30;73.70
61392;DHT22;47261;52.892;5.738;2023-03-14T14:26:19;8.30;74.10
61392;DHT22;47261;52.892;5.738;2023-03-14T14:28:46;8.20;74.10
61392;DHT22;47261;52.892;5.738;2023-03-14T14:33:45;8.20;77.60
61392;DHT22;47261;52.892;5.738;2023-03-14T14:36:20;8.30;74.90
61392;DHT22;47261;52.892;5.738;2023-03-14T14:39:24;8.40;75.10
61392;DHT22;47261;52.892;5.738;2023-03-14T14:41:51;8.50;74.20
61392;DHT22;47261;52.892;5.738;2023-03-14T14:44:24;8.60;74.20
61392;DHT22;47261;52.892;5.738;2023-03-14T14:46:55;8.70;75.10
61392;DHT22;47261;52.892;5.738;2023-03-14T14:49:27;8.70;71.50
61392;DHT22;47261;52.892;5.738;2023-03-14T14:52:01;8.80;71.20
61392;DHT22;47261;52.892;5.738;2023-03-14T14:54:38;8.70;69.40
61392;DHT22;47261;52.892;5.738;2023-03-14T14:57:18;8.70;66.50
61392;DHT22;47261;52.892;5.738;2023-03-14T14:59:44;8.60;67.50
61392;DHT22;47261;52.892;5.738;2023-03-14T15:02:27;8.60;67.50
61392;DHT22;47261;52.892;5.738;2023-03-14T15:04:52;8.60;68.20
61392;DHT22;47261;52.892;5.738;2023-03-14T15:07:18;8.60;67.90
61392;DHT22;47261;52.892;5.738;2023-03-14T15:09:44;8.50;66.10
61392;DHT22;47261;52.892;5.738;2023-03-14T15:12:09;8.50;66.70
61392;DHT22;47261;52.892;5.738;2023-03-14T15:14:35;8.40;67.50
61392;DHT22;47261;52.892;5.738;2023-03-14T15:17:01;8.40;68.00
61392;DHT22;47261;52.892;5.738;2023-03-14T15:19:27;8.40;68.20
61392;DHT22;47261;52.892;5.738;2023-03-14T15:21:54;8.30;67.30
61392;DHT22;47261;52.892;5.738;2023-03-14T15:24:20;8.20;68.60
61392;DHT22;47261;52.892;5.738;2023-03-14T15:26:46;8.10;68.10
61392;DHT22;47261;52.892;5.738;2023-03-14T15:29:12;7.90;69.00
61392;DHT22;47261;52.892;5.738;2023-03-14T15:31:39;7.70;70.90
61392;DHT22;47261;52.892;5.738;2023-03-14T15:34:05;7.60;73.00
61392;DHT22;47261;52.892;5.738;2023-03-14T15:36:32;7.40;73.20
61392;DHT22;47261;52.892;5.738;2023-03-14T15:38:59;7.30;74.40
61392;DHT22;47261;52.892;5.738;2023-03-14T15:41:26;7.20;76.30
61392;DHT22;47261;52.892;5.738;2023-03-14T15:43:52;7.20;77.30
61392;DHT22;47261;52.892;5.738;2023-03-14T15:46:18;7.20;77.80
61392;DHT22;47261;52.892;5.738;2023-03-14T15:48:45;7.20;77.40
61392;DHT22;47261;52.892;5.738;2023-03-14T15:51:11;7.20;78.40
61392;DHT22;47261;52.892;5.738;2023-03-14T15:53:37;7.20;78.40
61392;DHT22;47261;52.892;5.738;2023-03-14T15:56:04;7.10;75.10
61392;DHT22;47261;52.892;5.738;2023-03-14T15:58:30;7.00;75.20
61392;DHT22;47261;52.892;5.738;2023-03-14T16:00:59;7.00;76.20
61392;DHT22;47261;52.892;5.738;2023-03-14T16:03:26;6.90;75.90
61392;DHT22;47261;52.892;5.738;2023-03-14T16:05:52;6.90;74.20
61392;DHT22;47261;52.892;5.738;2023-03-14T16:08:17;6.90;74.60
61392;DHT22;47261;52.892;5.738;2023-03-14T16:10:43;6.90;77.20
61392;DHT22;47261;52.892;5.738;2023-03-14T16:13:10;6.90;77.60
61392;DHT22;47261;52.892;5.738;2023-03-14T16:15:36;7.00;77.20
61392;DHT22;47261;52.892;5.738;2023-03-14T16:18:02;7.00;77.30
61392;DHT22;47261;52.892;5.738;2023-03-14T16:20:28;7.00;76.70
61392;DHT22;47261;52.892;5.738;2023-03-14T16:22:54;7.10;76.80
61392;DHT22;47261;52.892;5.738;2023-03-14T16:25:20;7.00;76.50
61392;DHT22;47261;52.892;5.738;2023-03-14T16:27:45;6.90;76.40
61392;DHT22;47261;52.892;5.738;2023-03-14T16:30:11;6.80;77.00
61392;DHT22;47261;52.892;5.738;2023-03-14T16:32:40;6.70;77.90
61392;DHT22;47261;52.892;5.738;2023-03-14T16:35:06;6.70;78.80
61392;DHT22;47261;52.892;5.738;2023-03-14T16:37:32;6.60;79.80
61392;DHT22;47261;52.892;5.738;2023-03-14T16:39:57;6.50;80.80
61392;DHT22;47261;52.892;5.738;2023-03-14T16:42:23;6.40;80.50
61392;DHT22;47261;52.892;5.738;2023-03-14T16:44:49;6.30;81.20
61392;DHT22;47261;52.892;5.738;2023-03-14T16:47:15;6.30;81.70
61392;DHT22;47261;52.892;5.738;2023-03-14T16:49:40;6.20;82.00
61392;DHT22;47261;52.892;5.738;2023-03-14T16:52:06;6.20;82.20
61392;DHT22;47261;52.892;5.738;2023-03-14T16:54:33;6.20;83.20
61392;DHT22;47261;52.892;5.738;2023-03-14T16:56:59;6.30;83.50
61392;DHT22;47261;52.892;5.738;2023-03-14T16:59:25;6.30;83.20